sensor_id;sensor_type;location;lat;lon;timestamp;P1;durP1;ratioP1;P2;durP2;ratioP2
3939;SDS011;1984;48.312;9.244;2023-05-17T00:02:05;2.90;;;1.23;;
3939;SDS011;1984;48.312;9.244;2023-05-17T00:04:30;17.97;;;1.90;;
3939;SDS011;1984;48.312;9.244;2023-05-17T00:06:57;8.90;;;1.87;;
3939;SDS011;1984;48.312;9.244;2023-05-17T00:09:22;3.67;;;1.43;;
3939;SDS011;1984;48.312;9.244;2023-05-17T00:11:48;2.60;;;1.20;;
3939;SDS011;1984;48.312;9.244;2023-05-17T00:14:13;13.50;;;1.80;;
3939;SDS011;1984;48.312;9.244;2023-05-17T00:16:39;2.67;;;1.43;;
3939;SDS011;1984;48.312;9.244;2023-05-17T00:19:04;10.43;;;1.50;;
3939;SDS011;1984;48.312;9.244;2023-05-17T00:21:30;2.20;;;1.10;;
3939;SDS011;1984;48.312;9.244;2023-05-17T00:23:55;1.93;;;1.57;;
3939;SDS011;1984;48.312;9.244;2023-05-17T00:26:21;3.53;;;1.50;;
3939;SDS011;1984;48.312;9.244;2023-05-17T00:28:46;1.53;;;1.43;;
3939;SDS011;1984;48.312;9.244;2023-05-17T00:31:12;3.23;;;1.20;;
3939;SDS011;1984;48.312;9.244;2023-05-17T00:33:37;3.33;;;1.23;;
3939;SDS011;1984;48.312;9.244;2023-05-17T00:36:03;9.43;;;1.47;;
3939;SDS011;1984;48.312;9.244;2023-05-17T00:38:29;6.67;;;1.50;;
3939;SDS011;1984;48.312;9.244;2023-05-17T00:40:54;5.00;;;1.17;;
3939;SDS011;1984;48.312;9.244;2023-05-17T00:43:20;1.33;;;1.23;;
3939;SDS011;1984;48.312;9.244;2023-05-17T00:45:45;1.47;;;1.10;;
3939;SDS011;1984;48.312;9.244;2023-05-17T00:48:13;2.40;;;1.60;;
3939;SDS011;1984;48.312;9.244;2023-05-17T00:50:39;3.80;;;1.40;;
3939;SDS011;1984;48.312;9.244;2023-05-17T00:53:05;1.50;;;1.40;;
3939;SDS011;1984;48.312;9.244;2023-05-17T00:55:31;7.13;;;1.77;;
3939;SDS011;1984;48.312;9.244;2023-05-17T00:57:57;3.20;;;1.43;;
3939;SDS011;1984;48.312;9.244;2023-05-17T01:00:23;1.60;;;1.20;;
3939;SDS011;1984;48.312;9.244;2023-05-17T01:02:48;1.37;;;1.27;;
3939;SDS011;1984;48.312;9.244;2023-05-17T01:05:14;6.07;;;1.80;;
3939;SDS011;1984;48.312;9.244;2023-05-17T01:07:40;1.40;;;1.33;;
3939;SDS011;1984;48.312;9.244;2023-05-17T01:10:06;6.77;;;1.40;;
3939;SDS011;1984;48.312;9.244;2023-05-17T01:15:32;4.80;;;1.77;;
3939;SDS011;1984;48.312;9.244;2023-05-17T01:20:36;6.33;;;1.20;;
3939;SDS011;1984;48.312;9.244;2023-05-17T01:28:19;1.43;;;1.23;;
3939;SDS011;1984;48.312;9.244;2023-05-17T01:30:47;1.50;;;1.40;;
3939;SDS011;1984;48.312;9.244;2023-05-17T01:33:15;2.90;;;1.23;;
3939;SDS011;1984;48.312;9.244;2023-05-17T01:35:42;1.77;;;1.20;;
3939;SDS011;1984;48.312;9.244;2023-05-17T01:38:08;1.63;;;1.30;;
3939;SDS011;1984;48.312;9.244;2023-05-17T01:40:34;4.37;;;1.40;;
3939;SDS011;1984;48.312;9.244;2023-05-17T01:43:16;2.20;;;1.10;;
3939;SDS011;1984;48.312;9.244;2023-05-17T01:46:11;3.33;;;1.10;;
3939;SDS011;1984;48.312;9.244;2023-05-17T01:48:48;2.30;;;0.90;;
3939;SDS011;1984;48.312;9.244;2023-05-17T01:51:20;11.63;;;1.70;;
3939;SDS011;1984;48.312;9.244;2023-05-17T01:53:54;3.03;;;1.47;;
3939;SDS011;1984;48.312;9.244;2023-05-17T01:56:32;5.03;;;1.30;;
3939;SDS011;1984;48.312;9.244;2023-05-17T01:58:58;2.90;;;1.17;;
3939;SDS011;1984;48.312;9.244;2023-05-17T02:01:26;1.57;;;1.03;;
3939;SDS011;1984;48.312;9.244;2023-05-17T02:03:54;1.70;;;1.00;;
3939;SDS011;1984;48.312;9.244;2023-05-17T02:06:20;2.87;;;1.27;;
3939;SDS011;1984;48.312;9.244;2023-05-17T02:08:45;3.23;;;1.03;;
3939;SDS011;1984;48.312;9.244;2023-05-17T02:11:11;1.50;;;0.93;;
3939;SDS011;1984;48.312;9.244;2023-05-17T02:13:36;2.30;;;1.03;;
3939;SDS011;1984;48.312;9.244;2023-05-17T02:16:02;1.60;;;1.13;;
3939;SDS011;1984;48.312;9.244;2023-05-17T02:18:28;3.23;;;1.50;;
3939;SDS011;1984;48.312;9.244;2023-05-17T02:20:54;3.27;;;1.13;;
3939;SDS011;1984;48.312;9.244;2023-05-17T02:23:20;0.80;;;0.80;;
3939;SDS011;1984;48.312;9.244;2023-05-17T02:25:46;3.23;;;1.13;;
3939;SDS011;1984;48.312;9.244;2023-05-17T02:28:11;1.83;;;1.13;;
3939;SDS011;1984;48.312;9.244;2023-05-17T02:30:37;2.47;;;0.80;;
3939;SDS011;1984;48.312;9.244;2023-05-17T02:33:05;0.73;;;0.73;;
3939;SDS011;1984;48.312;9.244;2023-05-17T02:35:31;2.20;;;1.10;;
3939;SDS011;1984;48.312;9.244;2023-05-17T02:37:57;2.00;;;1.20;;
3939;SDS011;1984;48.312;9.244;2023-05-17T02:40:23;0.80;;;0.80;;
3939;SDS011;1984;48.312;9.244;2023-05-17T02:42:48;2.53;;;1.10;;
3939;SDS011;1984;48.312;9.244;2023-05-17T02:45:14;1.80;;;1.00;;
3939;SDS011;1984;48.312;9.244;2023-05-17T02:47:39;4.00;;;1.30;;
3939;SDS011;1984;48.312;9.244;2023-05-17T02:50:05;1.20;;;1.10;;
3939;SDS011;1984;48.312;9.244;2023-05-17T02:52:31;6.53;;;1.83;;
3939;SDS011;1984;48.312;9.244;2023-05-17T02:54:56;2.37;;;1.20;;
3939;SDS011;1984;48.312;9.244;2023-05-17T02:57:22;2.00;;;1.00;;
3939;SDS011;1984;48.312;9.244;2023-05-17T02:59:47;1.23;;;1.17;;
3939;SDS011;1984;48.312;9.244;2023-05-17T03:02:13;1.60;;;1.10;;
3939;SDS011;1984;48.312;9.244;2023-05-17T03:04:39;2.40;;;1.23;;
3939;SDS011;1984;48.312;9.244;2023-05-17T03:07:04;3.83;;;1.10;;
3939;SDS011;1984;48.312;9.244;2023-05-17T03:09:30;2.83;;;0.90;;
3939;SDS011;1984;48.312;9.244;2023-05-17T03:11:56;3.40;;;1.03;;
3939;SDS011;1984;48.312;9.244;2023-05-17T03:14:21;3.33;;;1.00;;
3939;SDS011;1984;48.312;9.244;2023-05-17T03:16:47;3.50;;;0.83;;
3939;SDS011;1984;48.312;9.244;2023-05-17T03:19:12;1.07;;;0.97;;
3939;SDS011;1984;48.312;9.244;2023-05-17T03:21:38;1.23;;;1.00;;
3939;SDS011;1984;48.312;9.244;2023-05-17T03:24:04;1.33;;;1.23;;
3939;SDS011;1984;48.312;9.244;2023-05-17T03:26:29;1.17;;;0.80;;
3939;SDS011;1984;48.312;9.244;2023-05-17T03:28:57;4.83;;;1.20;;
3939;SDS011;1984;48.312;9.244;2023-05-17T03:31:22;0.87;;;0.80;;
3939;SDS011;1984;48.312;9.244;2023-05-17T03:33:48;3.90;;;1.33;;
3939;SDS011;1984;48.312;9.244;2023-05-17T03:36:13;0.90;;;0.90;;
3939;SDS011;1984;48.312;9.244;2023-05-17T03:38:39;2.17;;;0.97;;
3939;SDS011;1984;48.312;9.244;2023-05-17T03:41:05;2.93;;;1.07;;
3939;SDS011;1984;48.312;9.244;2023-05-17T03:43:30;4.87;;;1.33;;
3939;SDS011;1984;48.312;9.244;2023-05-17T03:45:56;1.40;;;1.17;;
3939;SDS011;1984;48.312;9.244;2023-05-17T03:48:21;2.57;;;1.33;;
3939;SDS011;1984;48.312;9.244;2023-05-17T03:50:47;1.87;;;1.23;;
3939;SDS011;1984;48.312;9.244;2023-05-17T03:53:12;2.87;;;1.30;;
3939;SDS011;1984;48.312;9.244;2023-05-17T03:55:38;4.80;;;1.77;;
3939;SDS011;1984;48.312;9.244;2023-05-17T03:58:03;1.37;;;1.27;;
3939;SDS011;1984;48.312;9.244;2023-05-17T04:00:29;6.50;;;2.00;;
3939;SDS011;1984;48.312;9.244;2023-05-17T04:02:55;1.83;;;1.40;;
3939;SDS011;1984;48.312;9.244;2023-05-17T04:05:20;2.90;;;1.30;;
3939;SDS011;1984;48.312;9.244;2023-05-17T04:07:46;2.57;;;1.60;;
3939;SDS011;1984;48.312;9.244;2023-05-17T04:10:11;3.23;;;1.90;;
3939;SDS011;1984;48.312;9.244;2023-05-17T04:12:37;7.57;;;2.10;;
3939;SDS011;1984;48.312;9.244;2023-05-17T04:15:03;2.80;;;1.30;;
3939;SDS011;1984;48.312;9.244;2023-05-17T04:17:29;3.40;;;1.63;;
3939;SDS011;1984;48.312;9.244;2023-05-17T04:19:54;1.40;;;1.30;;
3939;SDS011;1984;48.312;9.244;2023-05-17T04:22:20;2.20;;;1.43;;
3939;SDS011;1984;48.312;9.244;2023-05-17T04:24:46;4.83;;;1.97;;
3939;SDS011;1984;48.312;9.244;2023-05-17T04:27:11;2.27;;;1.20;;
3939;SDS011;1984;48.312;9.244;2023-05-17T04:29:37;2.43;;;0.90;;
3939;SDS011;1984;48.312;9.244;2023-05-17T04:32:03;9.30;;;1.33;;
3939;SDS011;1984;48.312;9.244;2023-05-17T04:34:28;4.83;;;1.43;;
3939;SDS011;1984;48.312;9.244;2023-05-17T04:36:56;3.17;;;1.43;;
3939;SDS011;1984;48.312;9.244;2023-05-17T04:39:21;5.03;;;1.50;;
3939;SDS011;1984;48.312;9.244;2023-05-17T04:41:47;2.37;;;1.47;;
3939;SDS011;1984;48.312;9.244;2023-05-17T04:44:12;1.17;;;1.13;;
3939;SDS011;1984;48.312;9.244;2023-05-17T04:46:38;4.87;;;1.10;;
3939;SDS011;1984;48.312;9.244;2023-05-17T04:49:04;1.87;;;1.23;;
3939;SDS011;1984;48.312;9.244;2023-05-17T04:51:29;1.80;;;1.23;;
3939;SDS011;1984;48.312;9.244;2023-05-17T04:53:55;3.80;;;1.30;;
3939;SDS011;1984;48.312;9.244;2023-05-17T04:56:22;1.43;;;1.00;;
3939;SDS011;1984;48.312;9.244;2023-05-17T04:58:47;0.87;;;0.87;;
3939;SDS011;1984;48.312;9.244;2023-05-17T05:01:13;1.00;;;1.00;;
3939;SDS011;1984;48.312;9.244;2023-05-17T05:03:38;3.80;;;1.50;;
3939;SDS011;1984;48.312;9.244;2023-05-17T05:06:04;1.03;;;0.93;;
3939;SDS011;1984;48.312;9.244;2023-05-17T05:08:31;6.40;;;1.40;;
3939;SDS011;1984;48.312;9.244;2023-05-17T05:10:57;4.50;;;1.83;;
3939;SDS011;1984;48.312;9.244;2023-05-17T05:13:22;3.17;;;1.27;;
3939;SDS011;1984;48.312;9.244;2023-05-17T05:15:48;2.20;;;1.23;;
3939;SDS011;1984;48.312;9.244;2023-05-17T05:18:13;6.70;;;1.50;;
3939;SDS011;1984;48.312;9.244;2023-05-17T05:20:39;3.73;;;1.03;;
3939;SDS011;1984;48.312;9.244;2023-05-17T05:23:04;2.20;;;1.10;;
3939;SDS011;1984;48.312;9.244;2023-05-17T05:25:30;3.43;;;1.10;;
3939;SDS011;1984;48.312;9.244;2023-05-17T05:27:56;2.70;;;1.60;;
3939;SDS011;1984;48.312;9.244;2023-05-17T05:30:22;2.53;;;1.40;;
3939;SDS011;1984;48.312;9.244;2023-05-17T05:32:48;2.67;;;1.30;;
3939;SDS011;1984;48.312;9.244;2023-05-17T05:35:14;3.83;;;1.37;;
3939;SDS011;1984;48.312;9.244;2023-05-17T05:37:41;4.13;;;2.07;;
3939;SDS011;1984;48.312;9.244;2023-05-17T05:40:07;8.00;;;1.90;;
3939;SDS011;1984;48.312;9.244;2023-05-17T05:42:33;17.33;;;1.33;;
3939;SDS011;1984;48.312;9.244;2023-05-17T05:44:58;3.23;;;1.20;;
3939;SDS011;1984;48.312;9.244;2023-05-17T05:47:24;2.23;;;1.07;;
3939;SDS011;1984;48.312;9.244;2023-05-17T05:49:50;3.03;;;1.40;;
3939;SDS011;1984;48.312;9.244;2023-05-17T05:52:15;2.93;;;1.57;;
3939;SDS011;1984;48.312;9.244;2023-05-17T05:54:41;6.33;;;1.20;;
3939;SDS011;1984;48.312;9.244;2023-05-17T05:57:06;2.40;;;1.40;;
3939;SDS011;1984;48.312;9.244;2023-05-17T05:59:32;3.07;;;1.20;;
3939;SDS011;1984;48.312;9.244;2023-05-17T06:01:57;6.50;;;1.53;;
3939;SDS011;1984;48.312;9.244;2023-05-17T06:04:23;2.63;;;1.50;;
3939;SDS011;1984;48.312;9.244;2023-05-17T06:06:49;1.63;;;1.23;;
3939;SDS011;1984;48.312;9.244;2023-05-17T06:09:14;3.70;;;1.03;;
3939;SDS011;1984;48.312;9.244;2023-05-17T06:11:40;5.30;;;1.50;;
3939;SDS011;1984;48.312;9.244;2023-05-17T06:14:06;1.70;;;1.33;;
3939;SDS011;1984;48.312;9.244;2023-05-17T06:16:32;5.33;;;0.97;;
3939;SDS011;1984;48.312;9.244;2023-05-17T06:18:58;3.10;;;1.33;;
3939;SDS011;1984;48.312;9.244;2023-05-17T06:21:23;6.00;;;1.73;;
3939;SDS011;1984;48.312;9.244;2023-05-17T06:23:49;2.30;;;1.10;;
3939;SDS011;1984;48.312;9.244;2023-05-17T06:26:15;4.90;;;1.67;;
3939;SDS011;1984;48.312;9.244;2023-05-17T06:28:40;1.40;;;1.30;;
3939;SDS011;1984;48.312;9.244;2023-05-17T06:31:06;6.50;;;1.27;;
3939;SDS011;1984;48.312;9.244;2023-05-17T06:33:32;4.87;;;1.53;;
3939;SDS011;1984;48.312;9.244;2023-05-17T06:35:57;1.87;;;1.20;;
3939;SDS011;1984;48.312;9.244;2023-05-17T06:38:23;3.53;;;1.40;;
3939;SDS011;1984;48.312;9.244;2023-05-17T06:40:52;2.63;;;1.43;;
3939;SDS011;1984;48.312;9.244;2023-05-17T06:43:19;3.07;;;1.03;;
3939;SDS011;1984;48.312;9.244;2023-05-17T06:45:45;1.87;;;1.53;;
3939;SDS011;1984;48.312;9.244;2023-05-17T06:48:11;5.90;;;1.50;;
3939;SDS011;1984;48.312;9.244;2023-05-17T06:50:36;8.20;;;1.37;;
3939;SDS011;1984;48.312;9.244;2023-05-17T06:53:02;5.50;;;1.47;;
3939;SDS011;1984;48.312;9.244;2023-05-17T06:55:28;4.97;;;1.60;;
3939;SDS011;1984;48.312;9.244;2023-05-17T06:57:54;2.13;;;1.33;;
3939;SDS011;1984;48.312;9.244;2023-05-17T07:00:20;11.43;;;2.40;;
3939;SDS011;1984;48.312;9.244;2023-05-17T07:02:45;2.30;;;1.50;;
3939;SDS011;1984;48.312;9.244;2023-05-17T07:05:11;3.53;;;1.50;;
3939;SDS011;1984;48.312;9.244;2023-05-17T07:07:37;6.53;;;1.73;;
3939;SDS011;1984;48.312;9.244;2023-05-17T07:10:03;8.23;;;2.10;;
3939;SDS011;1984;48.312;9.244;2023-05-17T07:12:29;6.03;;;2.00;;
3939;SDS011;1984;48.312;9.244;2023-05-17T07:14:55;4.47;;;1.40;;
3939;SDS011;1984;48.312;9.244;2023-05-17T07:17:20;7.00;;;1.93;;
3939;SDS011;1984;48.312;9.244;2023-05-17T07:19:46;9.07;;;2.00;;
3939;SDS011;1984;48.312;9.244;2023-05-17T07:22:15;7.23;;;1.60;;
3939;SDS011;1984;48.312;9.244;2023-05-17T07:24:41;4.93;;;1.80;;
3939;SDS011;1984;48.312;9.244;2023-05-17T07:27:07;10.53;;;2.47;;
3939;SDS011;1984;48.312;9.244;2023-05-17T07:29:33;7.10;;;2.27;;
3939;SDS011;1984;48.312;9.244;2023-05-17T07:31:58;4.43;;;1.77;;
3939;SDS011;1984;48.312;9.244;2023-05-17T07:34:24;4.33;;;1.70;;
3939;SDS011;1984;48.312;9.244;2023-05-17T07:36:49;8.37;;;1.97;;
3939;SDS011;1984;48.312;9.244;2023-05-17T07:39:15;3.80;;;1.63;;
3939;SDS011;1984;48.312;9.244;2023-05-17T07:41:40;3.80;;;1.70;;
3939;SDS011;1984;48.312;9.244;2023-05-17T07:44:06;2.30;;;1.60;;
3939;SDS011;1984;48.312;9.244;2023-05-17T07:46:31;4.13;;;1.57;;
3939;SDS011;1984;48.312;9.244;2023-05-17T07:48:57;6.57;;;1.63;;
3939;SDS011;1984;48.312;9.244;2023-05-17T07:51:23;1.83;;;1.60;;
3939;SDS011;1984;48.312;9.244;2023-05-17T07:53:48;5.40;;;2.13;;
3939;SDS011;1984;48.312;9.244;2023-05-17T07:56:13;2.40;;;1.60;;
3939;SDS011;1984;48.312;9.244;2023-05-17T07:58:39;6.80;;;1.90;;
3939;SDS011;1984;48.312;9.244;2023-05-17T08:01:05;3.27;;;2.20;;
3939;SDS011;1984;48.312;9.244;2023-05-17T08:03:30;1.97;;;1.53;;
3939;SDS011;1984;48.312;9.244;2023-05-17T08:05:56;4.93;;;2.10;;
3939;SDS011;1984;48.312;9.244;2023-05-17T08:08:21;5.20;;;1.73;;
3939;SDS011;1984;48.312;9.244;2023-05-17T08:10:47;3.07;;;1.63;;
3939;SDS011;1984;48.312;9.244;2023-05-17T08:13:12;3.20;;;1.73;;
3939;SDS011;1984;48.312;9.244;2023-05-17T08:15:38;3.20;;;1.67;;
3939;SDS011;1984;48.312;9.244;2023-05-17T08:18:03;4.03;;;1.57;;
3939;SDS011;1984;48.312;9.244;2023-05-17T08:20:29;11.77;;;1.50;;
3939;SDS011;1984;48.312;9.244;2023-05-17T08:22:55;5.53;;;1.53;;
3939;SDS011;1984;48.312;9.244;2023-05-17T08:25:21;3.50;;;1.80;;
3939;SDS011;1984;48.312;9.244;2023-05-17T08:27:46;2.13;;;1.30;;
3939;SDS011;1984;48.312;9.244;2023-05-17T08:30:12;7.83;;;1.37;;
3939;SDS011;1984;48.312;9.244;2023-05-17T08:32:38;2.27;;;1.43;;
3939;SDS011;1984;48.312;9.244;2023-05-17T08:35:03;2.83;;;1.40;;
3939;SDS011;1984;48.312;9.244;2023-05-17T08:37:29;2.83;;;1.83;;
3939;SDS011;1984;48.312;9.244;2023-05-17T08:39:55;6.10;;;1.83;;
3939;SDS011;1984;48.312;9.244;2023-05-17T08:42:21;2.53;;;1.47;;
3939;SDS011;1984;48.312;9.244;2023-05-17T08:44:53;7.37;;;1.83;;
3939;SDS011;1984;48.312;9.244;2023-05-17T08:47:20;3.87;;;2.23;;
3939;SDS011;1984;48.312;9.244;2023-05-17T08:49:54;6.90;;;1.90;;
3939;SDS011;1984;48.312;9.244;2023-05-17T08:52:30;6.53;;;1.90;;
3939;SDS011;1984;48.312;9.244;2023-05-17T08:54:57;2.07;;;1.40;;
3939;SDS011;1984;48.312;9.244;2023-05-17T08:57:24;4.40;;;1.70;;
3939;SDS011;1984;48.312;9.244;2023-05-17T08:59:52;3.00;;;1.70;;
3939;SDS011;1984;48.312;9.244;2023-05-17T09:02:19;5.90;;;1.97;;
3939;SDS011;1984;48.312;9.244;2023-05-17T09:04:45;2.83;;;1.50;;
3939;SDS011;1984;48.312;9.244;2023-05-17T09:07:14;5.20;;;2.10;;
3939;SDS011;1984;48.312;9.244;2023-05-17T09:09:39;1.70;;;1.60;;
3939;SDS011;1984;48.312;9.244;2023-05-17T09:12:05;5.37;;;1.80;;
3939;SDS011;1984;48.312;9.244;2023-05-17T09:14:34;3.63;;;2.20;;
3939;SDS011;1984;48.312;9.244;2023-05-17T09:17:00;8.00;;;2.50;;
3939;SDS011;1984;48.312;9.244;2023-05-17T09:19:25;5.87;;;2.00;;
3939;SDS011;1984;48.312;9.244;2023-05-17T09:21:54;2.07;;;1.83;;
3939;SDS011;1984;48.312;9.244;2023-05-17T09:24:29;3.03;;;1.97;;
3939;SDS011;1984;48.312;9.244;2023-05-17T09:27:01;3.60;;;1.90;;
3939;SDS011;1984;48.312;9.244;2023-05-17T09:29:29;2.97;;;1.60;;
3939;SDS011;1984;48.312;9.244;2023-05-17T09:32:11;1.90;;;1.67;;
3939;SDS011;1984;48.312;9.244;2023-05-17T09:34:38;3.63;;;2.30;;
3939;SDS011;1984;48.312;9.244;2023-05-17T09:37:17;2.97;;;1.90;;
3939;SDS011;1984;48.312;9.244;2023-05-17T09:39:43;4.50;;;1.93;;
3939;SDS011;1984;48.312;9.244;2023-05-17T09:42:11;3.13;;;2.07;;
3939;SDS011;1984;48.312;9.244;2023-05-17T09:44:50;2.63;;;1.70;;
3939;SDS011;1984;48.312;9.244;2023-05-17T09:47:21;6.80;;;2.23;;
3939;SDS011;1984;48.312;9.244;2023-05-17T09:49:57;2.90;;;2.07;;
3939;SDS011;1984;48.312;9.244;2023-05-17T09:52:26;6.00;;;2.03;;
3939;SDS011;1984;48.312;9.244;2023-05-17T09:54:56;3.90;;;2.27;;
3939;SDS011;1984;48.312;9.244;2023-05-17T09:57:24;5.20;;;2.40;;
3939;SDS011;1984;48.312;9.244;2023-05-17T09:59:53;3.00;;;1.97;;
3939;SDS011;1984;48.312;9.244;2023-05-17T10:02:21;4.77;;;2.37;;
3939;SDS011;1984;48.312;9.244;2023-05-17T10:04:54;2.67;;;2.00;;
3939;SDS011;1984;48.312;9.244;2023-05-17T10:07:21;5.07;;;2.20;;
3939;SDS011;1984;48.312;9.244;2023-05-17T10:09:50;3.03;;;2.53;;
3939;SDS011;1984;48.312;9.244;2023-05-17T10:12:16;4.27;;;2.70;;
3939;SDS011;1984;48.312;9.244;2023-05-17T10:14:45;3.83;;;1.97;;
3939;SDS011;1984;48.312;9.244;2023-05-17T10:17:12;4.10;;;2.00;;
3939;SDS011;1984;48.312;9.244;2023-05-17T10:19:38;5.03;;;2.20;;
3939;SDS011;1984;48.312;9.244;2023-05-17T10:22:05;3.90;;;2.27;;
3939;SDS011;1984;48.312;9.244;2023-05-17T10:24:31;6.23;;;2.63;;
3939;SDS011;1984;48.312;9.244;2023-05-17T10:26:58;3.10;;;2.20;;
3939;SDS011;1984;48.312;9.244;2023-05-17T10:29:24;2.10;;;1.90;;
3939;SDS011;1984;48.312;9.244;2023-05-17T10:31:50;6.90;;;2.40;;
3939;SDS011;1984;48.312;9.244;2023-05-17T10:34:16;6.40;;;2.60;;
3939;SDS011;1984;48.312;9.244;2023-05-17T10:36:43;7.67;;;2.40;;
3939;SDS011;1984;48.312;9.244;2023-05-17T10:39:09;3.73;;;2.30;;
3939;SDS011;1984;48.312;9.244;2023-05-17T10:41:36;6.17;;;2.50;;
3939;SDS011;1984;48.312;9.244;2023-05-17T10:44:06;9.93;;;2.77;;
3939;SDS011;1984;48.312;9.244;2023-05-17T10:46:37;5.50;;;2.20;;
3939;SDS011;1984;48.312;9.244;2023-05-17T10:49:03;4.70;;;2.30;;
3939;SDS011;1984;48.312;9.244;2023-05-17T10:51:30;6.37;;;2.80;;
3939;SDS011;1984;48.312;9.244;2023-05-17T10:54:11;5.30;;;2.87;;
3939;SDS011;1984;48.312;9.244;2023-05-17T10:56:51;6.23;;;2.70;;
3939;SDS011;1984;48.312;9.244;2023-05-17T10:59:20;5.60;;;2.67;;
3939;SDS011;1984;48.312;9.244;2023-05-17T11:06:50;6.90;;;3.27;;
3939;SDS011;1984;48.312;9.244;2023-05-17T11:09:16;4.07;;;2.43;;
3939;SDS011;1984;48.312;9.244;2023-05-17T11:12:05;3.73;;;2.30;;
3939;SDS011;1984;48.312;9.244;2023-05-17T11:22:33;6.83;;;2.47;;
3939;SDS011;1984;48.312;9.244;2023-05-17T11:25:06;12.03;;;3.17;;
3939;SDS011;1984;48.312;9.244;2023-05-17T11:27:37;6.70;;;2.70;;
3939;SDS011;1984;48.312;9.244;2023-05-17T11:30:28;4.10;;;2.33;;
3939;SDS011;1984;48.312;9.244;2023-05-17T11:33:12;4.00;;;2.90;;
3939;SDS011;1984;48.312;9.244;2023-05-17T11:35:38;7.90;;;3.23;;
3939;SDS011;1984;48.312;9.244;2023-05-17T11:40:42;5.60;;;2.10;;
3939;SDS011;1984;48.312;9.244;2023-05-17T11:45:41;11.10;;;2.43;;
3939;SDS011;1984;48.312;9.244;2023-05-17T11:48:07;3.53;;;2.63;;
3939;SDS011;1984;48.312;9.244;2023-05-17T11:50:34;6.30;;;2.53;;
3939;SDS011;1984;48.312;9.244;2023-05-17T11:53:01;4.00;;;3.00;;
3939;SDS011;1984;48.312;9.244;2023-05-17T11:55:38;2.97;;;2.40;;
3939;SDS011;1984;48.312;9.244;2023-05-17T11:58:08;5.57;;;2.90;;
3939;SDS011;1984;48.312;9.244;2023-05-17T12:00:36;4.73;;;3.00;;
3939;SDS011;1984;48.312;9.244;2023-05-17T12:03:25;3.20;;;2.17;;
3939;SDS011;1984;48.312;9.244;2023-05-17T12:06:06;5.13;;;3.27;;
3939;SDS011;1984;48.312;9.244;2023-05-17T12:08:33;4.80;;;2.70;;
3939;SDS011;1984;48.312;9.244;2023-05-17T12:11:00;5.03;;;2.90;;
3939;SDS011;1984;48.312;9.244;2023-05-17T12:13:27;4.10;;;2.50;;
3939;SDS011;1984;48.312;9.244;2023-05-17T12:15:55;3.50;;;2.70;;
3939;SDS011;1984;48.312;9.244;2023-05-17T12:18:32;6.03;;;3.73;;
3939;SDS011;1984;48.312;9.244;2023-05-17T12:21:02;4.40;;;2.60;;
3939;SDS011;1984;48.312;9.244;2023-05-17T12:23:28;5.30;;;3.33;;
3939;SDS011;1984;48.312;9.244;2023-05-17T12:28:27;6.67;;;3.40;;
3939;SDS011;1984;48.312;9.244;2023-05-17T12:30:53;5.47;;;2.70;;
3939;SDS011;1984;48.312;9.244;2023-05-17T12:33:22;5.03;;;3.33;;
3939;SDS011;1984;48.312;9.244;2023-05-17T12:35:51;5.63;;;2.87;;
3939;SDS011;1984;48.312;9.244;2023-05-17T12:38:17;6.40;;;3.20;;
3939;SDS011;1984;48.312;9.244;2023-05-17T12:40:43;2.20;;;2.00;;
3939;SDS011;1984;48.312;9.244;2023-05-17T12:43:09;5.03;;;3.07;;
3939;SDS011;1984;48.312;9.244;2023-05-17T12:45:35;3.37;;;2.47;;
3939;SDS011;1984;48.312;9.244;2023-05-17T12:48:00;4.37;;;2.50;;
3939;SDS011;1984;48.312;9.244;2023-05-17T12:50:29;5.20;;;2.63;;
3939;SDS011;1984;48.312;9.244;2023-05-17T12:52:55;4.40;;;2.80;;
3939;SDS011;1984;48.312;9.244;2023-05-17T12:55:21;10.97;;;3.03;;
3939;SDS011;1984;48.312;9.244;2023-05-17T12:57:50;3.77;;;2.43;;
3939;SDS011;1984;48.312;9.244;2023-05-17T13:00:16;7.30;;;2.87;;
3939;SDS011;1984;48.312;9.244;2023-05-17T13:02:43;7.30;;;2.70;;
3939;SDS011;1984;48.312;9.244;2023-05-17T13:05:18;3.47;;;2.60;;
3939;SDS011;1984;48.312;9.244;2023-05-17T13:07:47;6.00;;;2.77;;
3939;SDS011;1984;48.312;9.244;2023-05-17T13:10:22;8.50;;;2.80;;
3939;SDS011;1984;48.312;9.244;2023-05-17T13:12:55;3.33;;;2.33;;
3939;SDS011;1984;48.312;9.244;2023-05-17T13:15:28;6.70;;;2.50;;
3939;SDS011;1984;48.312;9.244;2023-05-17T13:17:54;1.90;;;1.77;;
3939;SDS011;1984;48.312;9.244;2023-05-17T13:20:20;4.90;;;2.57;;
3939;SDS011;1984;48.312;9.244;2023-05-17T13:22:46;6.73;;;2.93;;
3939;SDS011;1984;48.312;9.244;2023-05-17T13:25:12;5.93;;;2.90;;
3939;SDS011;1984;48.312;9.244;2023-05-17T13:27:38;4.20;;;2.83;;
3939;SDS011;1984;48.312;9.244;2023-05-17T13:30:09;4.97;;;3.03;;
3939;SDS011;1984;48.312;9.244;2023-05-17T13:32:35;3.77;;;2.77;;
3939;SDS011;1984;48.312;9.244;2023-05-17T13:35:01;5.40;;;2.13;;
3939;SDS011;1984;48.312;9.244;2023-05-17T13:37:27;3.53;;;2.40;;
3939;SDS011;1984;48.312;9.244;2023-05-17T13:39:52;6.30;;;2.93;;
3939;SDS011;1984;48.312;9.244;2023-05-17T13:42:20;8.30;;;3.10;;
3939;SDS011;1984;48.312;9.244;2023-05-17T13:44:47;4.53;;;2.70;;
3939;SDS011;1984;48.312;9.244;2023-05-17T13:47:12;6.73;;;2.33;;
3939;SDS011;1984;48.312;9.244;2023-05-17T13:49:38;5.20;;;2.83;;
3939;SDS011;1984;48.312;9.244;2023-05-17T13:52:04;4.10;;;3.00;;
3939;SDS011;1984;48.312;9.244;2023-05-17T13:54:32;4.07;;;3.03;;
3939;SDS011;1984;48.312;9.244;2023-05-17T13:56:58;5.17;;;2.90;;
3939;SDS011;1984;48.312;9.244;2023-05-17T13:59:24;4.07;;;2.77;;
3939;SDS011;1984;48.312;9.244;2023-05-17T14:01:50;6.37;;;3.07;;
3939;SDS011;1984;48.312;9.244;2023-05-17T14:04:16;5.23;;;3.10;;
3939;SDS011;1984;48.312;9.244;2023-05-17T14:06:41;5.83;;;3.00;;
3939;SDS011;1984;48.312;9.244;2023-05-17T14:09:07;5.93;;;3.60;;
3939;SDS011;1984;48.312;9.244;2023-05-17T14:11:33;6.60;;;3.60;;
3939;SDS011;1984;48.312;9.244;2023-05-17T14:13:58;4.87;;;2.60;;
3939;SDS011;1984;48.312;9.244;2023-05-17T14:16:25;3.23;;;2.20;;
3939;SDS011;1984;48.312;9.244;2023-05-17T14:18:50;6.23;;;3.50;;
3939;SDS011;1984;48.312;9.244;2023-05-17T14:21:16;10.47;;;3.50;;
3939;SDS011;1984;48.312;9.244;2023-05-17T14:23:41;6.07;;;3.30;;
3939;SDS011;1984;48.312;9.244;2023-05-17T14:26:07;8.67;;;3.80;;
3939;SDS011;1984;48.312;9.244;2023-05-17T14:28:33;5.37;;;3.57;;
3939;SDS011;1984;48.312;9.244;2023-05-17T14:31:03;10.53;;;3.10;;
3939;SDS011;1984;48.312;9.244;2023-05-17T14:33:30;5.57;;;2.87;;
3939;SDS011;1984;48.312;9.244;2023-05-17T14:35:55;6.37;;;3.47;;
3939;SDS011;1984;48.312;9.244;2023-05-17T14:38:21;6.90;;;3.00;;
3939;SDS011;1984;48.312;9.244;2023-05-17T14:40:47;7.53;;;3.00;;
3939;SDS011;1984;48.312;9.244;2023-05-17T14:43:12;7.47;;;3.10;;
3939;SDS011;1984;48.312;9.244;2023-05-17T14:45:38;6.47;;;2.50;;
3939;SDS011;1984;48.312;9.244;2023-05-17T14:48:03;3.10;;;2.30;;
3939;SDS011;1984;48.312;9.244;2023-05-17T14:50:29;6.63;;;2.67;;
3939;SDS011;1984;48.312;9.244;2023-05-17T14:52:56;6.27;;;3.20;;
3939;SDS011;1984;48.312;9.244;2023-05-17T14:55:22;7.73;;;2.93;;
3939;SDS011;1984;48.312;9.244;2023-05-17T14:58:05;4.60;;;2.83;;
3939;SDS011;1984;48.312;9.244;2023-05-17T15:00:30;4.50;;;2.63;;
3939;SDS011;1984;48.312;9.244;2023-05-17T15:02:56;9.10;;;2.93;;
3939;SDS011;1984;48.312;9.244;2023-05-17T15:05:21;6.50;;;3.10;;
3939;SDS011;1984;48.312;9.244;2023-05-17T15:07:47;5.63;;;2.63;;
3939;SDS011;1984;48.312;9.244;2023-05-17T15:10:14;4.13;;;2.80;;
3939;SDS011;1984;48.312;9.244;2023-05-17T15:12:41;5.60;;;3.20;;
3939;SDS011;1984;48.312;9.244;2023-05-17T15:15:07;4.30;;;2.50;;
3939;SDS011;1984;48.312;9.244;2023-05-17T15:17:32;5.57;;;2.83;;
3939;SDS011;1984;48.312;9.244;2023-05-17T15:19:58;3.00;;;2.33;;
3939;SDS011;1984;48.312;9.244;2023-05-17T15:22:24;5.33;;;3.10;;
3939;SDS011;1984;48.312;9.244;2023-05-17T15:24:49;5.30;;;2.80;;
3939;SDS011;1984;48.312;9.244;2023-05-17T15:27:15;8.10;;;3.17;;
3939;SDS011;1984;48.312;9.244;2023-05-17T15:29:41;5.10;;;2.87;;
3939;SDS011;1984;48.312;9.244;2023-05-17T15:32:07;6.40;;;2.63;;
3939;SDS011;1984;48.312;9.244;2023-05-17T15:34:33;11.93;;;3.40;;
3939;SDS011;1984;48.312;9.244;2023-05-17T15:36:59;5.03;;;2.47;;
3939;SDS011;1984;48.312;9.244;2023-05-17T15:39:26;6.43;;;2.43;;
3939;SDS011;1984;48.312;9.244;2023-05-17T15:41:51;7.90;;;3.10;;
3939;SDS011;1984;48.312;9.244;2023-05-17T15:44:17;9.07;;;2.53;;
3939;SDS011;1984;48.312;9.244;2023-05-17T15:46:43;4.47;;;2.67;;